Pelican — WDC4616 — position and weather

sailwx.info

Track history (hours):
 
Tides and Currents Weather Stations Pressure Air Temp Water Temp Dewpoint Dewpoint Depression Visibility Wind Speed Wind Dir Waves Ship Positions

Pelican

More information available from US FCC via Universal Licensing System and Coast Guard Vessel Documentation Center.

Last reported at 2014-Jul-26 20:24 UTC. Time now 2014-Aug-01 15:58 UTC.
Position N 49°38' W 124°02'.

; draft 2.2 m.

Type: Pleasure craft. MMSI: 367027560.

Date/timePositionNaut miles runAvg speedWind from/ knotsBaromVisibWave heightAir tempDewpointWater temp
2014-Jul-26 20:24N 49°38' W 124°02'0 0.0
2014-Jul-26 19:34N 49°38' W 124°02'5 4.6
2014-Jul-26 18:33N 49°33' W 124°03'9 8.9
2014-Jul-26 17:34N 49°25' W 123°60'9 8.7
2014-Jul-26 16:34N 49°16' W 123°56'6 0.2
2014-Jul-25 00:14N 49°10' W 123°56'0 0.0
2014-Jul-24 23:33N 49°10' W 123°56'3 2.4
2014-Jul-24 22:29N 49°10' W 123°52'8 7.9
2014-Jul-24 21:32N 49°05' W 123°44'8 7.3
2014-Jul-24 20:27N 48°59' W 123°35'9 9.2
2014-Jul-24 19:31N 48°52' W 123°27'2 0.0
2014-Jul-22 22:04N 48°51' W 123°30'0 0.0
2014-Jul-22 21:31N 48°51' W 123°30'0 0.0
2014-Jul-22 20:29N 48°51' W 123°30'18 7.8
2014-Jul-22 18:08N 48°38' W 123°11'  
2014-Jul-17 00:33N 48°37' W 123°09'0 0.0
2014-Jul-16 21:14N 48°37' W 123°09'0 0.0
2014-Jul-16 20:33N 48°37' W 123°09'  
Track history (hours):
 
Tides and Currents Weather Stations Pressure Air Temp Water Temp Dewpoint Dewpoint Depression Visibility Wind Speed Wind Dir Waves Ship Positions

Pelican

More information available from US FCC via Universal Licensing System and Coast Guard Vessel Documentation Center.

Last reported at 2014-Jul-26 20:24 UTC. Time now 2014-Aug-01 15:58 UTC.
Position N 49°38' W 124°02'.

; draft 2.2 m.

Type: Pleasure craft. MMSI: 367027560.

Date/timePositionNaut miles runAvg speedWind from/ knotsBaromVisibWave heightAir tempDewpointWater temp
2014-Jul-26 20:24N 49°38' W 124°02'0 0.0
2014-Jul-26 19:34N 49°38' W 124°02'5 4.6
2014-Jul-26 18:33N 49°33' W 124°03'9 8.9
2014-Jul-26 17:34N 49°25' W 123°60'9 8.7
2014-Jul-26 16:34N 49°16' W 123°56'6 0.2
2014-Jul-25 00:14N 49°10' W 123°56'0 0.0
2014-Jul-24 23:33N 49°10' W 123°56'3 2.4
2014-Jul-24 22:29N 49°10' W 123°52'8 7.9
2014-Jul-24 21:32N 49°05' W 123°44'8 7.3
2014-Jul-24 20:27N 48°59' W 123°35'9 9.2
2014-Jul-24 19:31N 48°52' W 123°27'2 0.0
2014-Jul-22 22:04N 48°51' W 123°30'0 0.0
2014-Jul-22 21:31N 48°51' W 123°30'0 0.0
2014-Jul-22 20:29N 48°51' W 123°30'18 7.8
2014-Jul-22 18:08N 48°38' W 123°11'  
2014-Jul-17 00:33N 48°37' W 123°09'0 0.0
2014-Jul-16 21:14N 48°37' W 123°09'0 0.0
2014-Jul-16 20:33N 48°37' W 123°09'  

Dump ship's entire track history